Abeille Bourbon — FZTC — position and weather

sailwx.info

Track history (hours):
 
Tides and Currents Weather Stations Pressure Air Temp Water Temp Dewpoint Dewpoint Depression Visibility Wind Speed Wind Dir Waves Ship Positions

Abeille Bourbon

Last reported at 2017-Sep-21 06:59 UTC. Time now 2017-Sep-21 07:08 UTC.
Position N 48°23' W 004°29'.

Length 80 m; draft 6.5 m.

Type: SAR. MMSI: 226263000.

Date/timePositionNaut miles runAvg speedWind from/ knotsBaromVisibWave heightAir tempDewpointWater temp
2017-Sep-21 06:59N 48°23' W 004°29'0 0.0
2017-Sep-21 06:29N 48°23' W 004°29'0 0.0
2017-Sep-21 05:59N 48°23' W 004°29'0 0.0
2017-Sep-21 05:29N 48°23' W 004°29'0 0.0
2017-Sep-21 04:59N 48°23' W 004°29'0 0.0
2017-Sep-21 04:29N 48°23' W 004°29'0 0.0
2017-Sep-21 03:59N 48°23' W 004°29'0 0.0
2017-Sep-21 03:29N 48°23' W 004°29'0 0.0
2017-Sep-21 02:59N 48°23' W 004°29'0 0.0
2017-Sep-21 02:29N 48°23' W 004°29'0 0.0
2017-Sep-21 01:59N 48°23' W 004°29'0 0.0
2017-Sep-21 01:29N 48°23' W 004°29'0 0.0
2017-Sep-21 00:59N 48°23' W 004°29'0 0.0
2017-Sep-21 00:29N 48°23' W 004°29'0 0.0
2017-Sep-20 23:59N 48°23' W 004°29'0 0.0
2017-Sep-20 23:29N 48°23' W 004°29'0 0.0
2017-Sep-20 22:59N 48°23' W 004°29'0 0.0
2017-Sep-20 22:29N 48°23' W 004°29'0 0.0
2017-Sep-20 21:59N 48°23' W 004°29'0 0.0
2017-Sep-20 21:29N 48°23' W 004°29'0 0.0
2017-Sep-20 20:59N 48°23' W 004°29'0 0.0
2017-Sep-20 20:29N 48°23' W 004°29'0 0.0
2017-Sep-20 19:59N 48°23' W 004°29'0 0.0
2017-Sep-20 19:29N 48°23' W 004°29'0 0.0
2017-Sep-20 18:59N 48°23' W 004°29'0 0.0
2017-Sep-20 18:29N 48°23' W 004°29'0 0.0
2017-Sep-20 17:59N 48°23' W 004°29'0 0.0
2017-Sep-20 17:29N 48°23' W 004°29'0 0.0
2017-Sep-20 16:59N 48°23' W 004°29'0 0.0
2017-Sep-20 16:29N 48°23' W 004°29'0 0.0
2017-Sep-20 15:59N 48°23' W 004°29'0 0.0
2017-Sep-20 15:29N 48°23' W 004°29'0 0.0
2017-Sep-20 14:59N 48°23' W 004°29'0 0.0
2017-Sep-20 13:59N 48°23' W 004°29'0 0.0
2017-Sep-20 13:29N 48°23' W 004°29'0 0.0
2017-Sep-20 12:59N 48°23' W 004°29'0 0.0
2017-Sep-20 12:29N 48°23' W 004°29'0 0.0
2017-Sep-20 11:59N 48°23' W 004°29'0 0.0
2017-Sep-20 11:29N 48°23' W 004°29'0 0.0
2017-Sep-20 10:59N 48°23' W 004°29'0 0.0
2017-Sep-20 10:29N 48°23' W 004°29'0 0.0
2017-Sep-20 09:59N 48°23' W 004°29'0 0.0
2017-Sep-20 09:29N 48°23' W 004°29'0 0.0
2017-Sep-20 08:59N 48°23' W 004°29'0 0.0
2017-Sep-20 08:29N 48°23' W 004°29'0 0.0
2017-Sep-20 07:59N 48°23' W 004°29'2 3.6
2017-Sep-20 07:31N 48°21' W 004°29'2 4.1
2017-Sep-20 07:01N 48°21' W 004°32'4 7.0
2017-Sep-20 06:31N 48°20' W 004°37'5 9.3
2017-Sep-20 06:01N 48°17' W 004°43'510.1
2017-Sep-20 05:31N 48°16' W 004°51'510.6
2017-Sep-20 05:00N 48°16' W 004°59'510.7
2017-Sep-20 04:31N 48°17' W 005°06'5 9.3
2017-Sep-20 03:56N 48°21' W 005°12'4 8.5
2017-Sep-20 03:30N 48°24' W 005°16'10 6.7
2017-Sep-20 02:00N 48°33' W 005°21'4 7.0
2017-Sep-20 01:28N 48°36' W 005°17'4 7.5
2017-Sep-20 01:00N 48°39' W 005°14'4 8.0
2017-Sep-20 00:30N 48°43' W 005°13'4 8.5
2017-Sep-20 00:01N 48°47' W 005°12'4 9.0
2017-Sep-19 23:30N 48°51' W 005°12'5 9.6
2017-Sep-19 22:59N 48°56' W 005°11'4 1.4
2017-Sep-19 19:55N 48°58' W 005°06'717.7
2017-Sep-19 19:30N 48°51' W 005°03'918.0
2017-Sep-19 19:00N 48°42' W 004°58'918.1
2017-Sep-19 18:30N 48°34' W 004°54'917.4
2017-Sep-19 18:00N 48°26' W 004°50'714.2
2017-Sep-19 17:31N 48°19' W 004°46'1019.0
2017-Sep-19 17:00N 48°21' W 004°32'2 4.9
2017-Sep-19 16:30N 48°23' W 004°29'0 0.0
2017-Sep-19 15:59N 48°23' W 004°29'0 0.0
2017-Sep-19 15:29N 48°23' W 004°29'0 0.0
2017-Sep-19 14:59N 48°23' W 004°29'0 0.0
2017-Sep-19 14:29N 48°23' W 004°29'0 0.0
2017-Sep-19 13:59N 48°23' W 004°29'0 0.0
2017-Sep-19 13:29N 48°23' W 004°29'0 0.0
2017-Sep-19 12:59N 48°23' W 004°29'0 0.0
2017-Sep-19 12:29N 48°23' W 004°29'0 0.0
2017-Sep-19 11:58N 48°23' W 004°29'0 0.0
2017-Sep-19 11:29N 48°23' W 004°29'0 0.0
2017-Sep-19 10:58N 48°23' W 004°29'0 0.0
2017-Sep-19 10:28N 48°23' W 004°29'0 0.0
2017-Sep-19 09:58N 48°23' W 004°29'0 0.0
2017-Sep-19 09:28N 48°23' W 004°29'0 0.0
2017-Sep-19 08:58N 48°23' W 004°29'0 0.0
2017-Sep-19 08:29N 48°23' W 004°29'0 0.0
2017-Sep-19 07:58N 48°23' W 004°29'0 0.0
2017-Sep-19 07:28N 48°23' W 004°29'0 0.0
2017-Sep-19 06:58N 48°23' W 004°29'0 0.0
2017-Sep-19 06:28N 48°23' W 004°29'0 0.0
2017-Sep-19 05:58N 48°23' W 004°29'0 0.0
2017-Sep-19 05:28N 48°23' W 004°29'0 0.0
2017-Sep-19 04:58N 48°23' W 004°29'0 0.0
2017-Sep-19 04:28N 48°23' W 004°29'0 0.0
2017-Sep-19 03:58N 48°23' W 004°29'0 0.0
2017-Sep-19 03:28N 48°23' W 004°29'0 0.0
2017-Sep-19 02:58N 48°23' W 004°29'0 0.0
2017-Sep-19 02:28N 48°23' W 004°29'0 0.0
2017-Sep-19 01:58N 48°23' W 004°29'0 0.0
2017-Sep-19 01:28N 48°23' W 004°29'0 0.0
2017-Sep-19 00:58N 48°23' W 004°29'0 0.0
2017-Sep-19 00:28N 48°23' W 004°29'0 0.0
2017-Sep-18 23:58N 48°23' W 004°29'0 0.0
2017-Sep-18 23:28N 48°23' W 004°29'0 0.0
2017-Sep-18 22:58N 48°23' W 004°29'0 0.0
2017-Sep-18 22:28N 48°23' W 004°29'0 0.0
2017-Sep-18 21:58N 48°23' W 004°29'0 0.0
2017-Sep-18 21:28N 48°23' W 004°29'0 0.0
2017-Sep-18 20:58N 48°23' W 004°29'0 0.0
2017-Sep-18 20:28N 48°23' W 004°29'0 0.0
2017-Sep-18 19:58N 48°23' W 004°29'0 0.0
2017-Sep-18 19:28N 48°23' W 004°29'0 0.0
2017-Sep-18 18:58N 48°23' W 004°29'0 0.0
2017-Sep-18 18:28N 48°23' W 004°29'0 0.0
2017-Sep-18 17:58N 48°23' W 004°29'0 0.0
2017-Sep-18 17:28N 48°23' W 004°29'0 0.0
2017-Sep-18 16:58N 48°23' W 004°29'0 0.0
2017-Sep-18 16:28N 48°23' W 004°29'0 0.0
2017-Sep-18 15:58N 48°23' W 004°29'0 0.0
2017-Sep-18 15:28N 48°23' W 004°29'0 0.0
2017-Sep-18 14:58N 48°23' W 004°29'0 0.0
2017-Sep-18 14:28N 48°23' W 004°29'0 0.0
2017-Sep-18 13:58N 48°23' W 004°29'0 0.0
2017-Sep-18 13:28N 48°23' W 004°29'0 0.0
2017-Sep-18 12:58N 48°23' W 004°29'0 0.0
2017-Sep-18 12:28N 48°23' W 004°29'0 0.0
2017-Sep-18 11:58N 48°23' W 004°29'0 0.0
2017-Sep-18 11:28N 48°23' W 004°29'0 0.0
2017-Sep-18 10:58N 48°23' W 004°29'0 0.0
2017-Sep-18 10:28N 48°23' W 004°29'0 0.0
2017-Sep-18 09:58N 48°23' W 004°29'0 0.0
2017-Sep-18 09:28N 48°23' W 004°29'0 0.0
2017-Sep-18 08:58N 48°23' W 004°29'0 0.0
2017-Sep-18 08:28N 48°23' W 004°29'0 0.0
2017-Sep-18 07:58N 48°23' W 004°29'0 0.0
2017-Sep-18 07:28N 48°23' W 004°29'0 0.0
2017-Sep-18 06:58N 48°23' W 004°29'0 0.0
2017-Sep-18 06:28N 48°23' W 004°29'0 0.0
2017-Sep-18 05:58N 48°23' W 004°29'0 0.0
2017-Sep-18 05:31N 48°23' W 004°29'0 0.0
2017-Sep-18 05:01N 48°23' W 004°29'0 0.0
2017-Sep-18 04:30N 48°23' W 004°29'0 0.0
2017-Sep-18 04:00N 48°23' W 004°29'0 0.0
2017-Sep-18 03:30N 48°23' W 004°29'0 0.0
2017-Sep-18 03:00N 48°23' W 004°29'0 0.0
2017-Sep-18 02:30N 48°23' W 004°29'0 0.0
2017-Sep-18 02:00N 48°23' W 004°29'0 0.0
2017-Sep-18 01:30N 48°23' W 004°29'0 0.0
2017-Sep-18 01:00N 48°23' W 004°29'0 0.0
2017-Sep-18 00:30N 48°23' W 004°29'0 0.0
2017-Sep-18 00:00N 48°23' W 004°29'0 0.0
2017-Sep-17 23:30N 48°23' W 004°29'0 0.0
2017-Sep-17 23:00N 48°23' W 004°29'0 0.0
2017-Sep-17 22:30N 48°23' W 004°29'0 0.0
2017-Sep-17 22:00N 48°23' W 004°29'0 0.0
2017-Sep-17 21:30N 48°23' W 004°29'0 0.0
2017-Sep-17 21:00N 48°23' W 004°29'0 0.0
2017-Sep-17 20:30N 48°23' W 004°29'0 0.0
2017-Sep-17 20:00N 48°23' W 004°29'0 0.0
2017-Sep-17 19:30N 48°23' W 004°29'0 0.0
2017-Sep-17 19:00N 48°23' W 004°29'0 0.0
2017-Sep-17 18:30N 48°23' W 004°29'0 0.0
2017-Sep-17 18:00N 48°23' W 004°29'0 0.0
2017-Sep-17 17:30N 48°23' W 004°29'0 0.0
2017-Sep-17 17:00N 48°23' W 004°29'0 0.0
2017-Sep-17 16:30N 48°23' W 004°29'0 0.0
2017-Sep-17 16:00N 48°23' W 004°29'0 0.0
2017-Sep-17 15:30N 48°23' W 004°29'0 0.0
2017-Sep-17 15:00N 48°23' W 004°29'0 0.0
2017-Sep-17 14:30N 48°23' W 004°29'0 0.0
2017-Sep-17 14:00N 48°23' W 004°29'0 0.0
2017-Sep-17 13:30N 48°23' W 004°29'0 0.0
2017-Sep-17 13:00N 48°23' W 004°29'0 0.0
2017-Sep-17 12:30N 48°23' W 004°29'0 0.0
2017-Sep-17 12:00N 48°23' W 004°29'0 0.0
2017-Sep-17 11:30N 48°23' W 004°29'0 0.0
2017-Sep-17 11:00N 48°23' W 004°29'0 0.0
2017-Sep-17 10:30N 48°23' W 004°29'0 0.0
2017-Sep-17 10:00N 48°23' W 004°29'0 0.0
2017-Sep-17 09:30N 48°23' W 004°29'0 0.0
2017-Sep-17 09:00N 48°23' W 004°29'0 0.0
2017-Sep-17 08:30N 48°23' W 004°29'0 0.0
2017-Sep-17 08:00N 48°23' W 004°29'0 0.0
2017-Sep-17 07:30N 48°23' W 004°29'0 0.0
2017-Sep-17 07:00N 48°23' W 004°29'0 0.0
2017-Sep-17 06:30N 48°23' W 004°29'0 0.0
2017-Sep-17 06:00N 48°23' W 004°29'0 0.0
2017-Sep-17 05:30N 48°23' W 004°29'0 0.0
2017-Sep-17 05:00N 48°23' W 004°29'0 0.0
2017-Sep-17 04:30N 48°23' W 004°29'0 0.0
2017-Sep-17 04:00N 48°23' W 004°29'0 0.0
2017-Sep-17 03:30N 48°23' W 004°29'0 0.0
2017-Sep-17 03:00N 48°23' W 004°29'0 0.0
2017-Sep-17 02:30N 48°23' W 004°29'0 0.0
2017-Sep-17 02:00N 48°23' W 004°29'0 0.0
2017-Sep-17 01:30N 48°23' W 004°29'0 0.0
2017-Sep-17 01:00N 48°23' W 004°29'0 0.0
2017-Sep-17 00:30N 48°23' W 004°29'0 0.0
2017-Sep-17 00:00N 48°23' W 004°29'0 0.0
2017-Sep-16 23:30N 48°23' W 004°29'0 0.0
2017-Sep-16 23:00N 48°23' W 004°29'0 0.0
2017-Sep-16 22:30N 48°23' W 004°29'0 0.0
2017-Sep-16 22:00N 48°23' W 004°29'0 0.0
2017-Sep-16 21:30N 48°23' W 004°29'0 0.0
2017-Sep-16 21:00N 48°23' W 004°29'0 0.0
2017-Sep-16 20:30N 48°23' W 004°29'0 0.0
2017-Sep-16 20:00N 48°23' W 004°29'0 0.0
2017-Sep-16 19:30N 48°23' W 004°29'0 0.0
2017-Sep-16 18:59N 48°23' W 004°29'0 0.0
2017-Sep-16 18:30N 48°23' W 004°29'0 0.0
2017-Sep-16 17:59N 48°23' W 004°29'0 0.0
2017-Sep-16 17:29N 48°23' W 004°29'0 0.0
2017-Sep-16 16:59N 48°23' W 004°29'0 0.0
2017-Sep-16 16:29N 48°23' W 004°29'0 0.0
2017-Sep-16 15:59N 48°23' W 004°29'0 0.0
2017-Sep-16 15:29N 48°23' W 004°29'0 0.0
2017-Sep-16 14:59N 48°23' W 004°29'0 0.0
2017-Sep-16 14:29N 48°23' W 004°29'0 0.0
2017-Sep-16 13:59N 48°23' W 004°29'0 0.0
2017-Sep-16 13:29N 48°23' W 004°29'0 0.0
2017-Sep-16 12:59N 48°23' W 004°29'0 0.0
2017-Sep-16 12:29N 48°23' W 004°29'0 0.0
2017-Sep-16 11:59N 48°23' W 004°29'0 0.0
2017-Sep-16 11:29N 48°23' W 004°29'0 0.0
2017-Sep-16 10:59N 48°23' W 004°29'0 0.0
2017-Sep-16 10:29N 48°23' W 004°29'0 0.0
2017-Sep-16 09:59N 48°23' W 004°29'0 0.0
2017-Sep-16 09:29N 48°23' W 004°29'0 0.0
2017-Sep-16 08:59N 48°23' W 004°29'0 0.0
2017-Sep-16 08:29N 48°23' W 004°29'0 0.0
2017-Sep-16 07:59N 48°23' W 004°29'0 0.0
2017-Sep-16 07:29N 48°23' W 004°29'0 0.0
2017-Sep-16 06:59N 48°23' W 004°29'0 0.0
2017-Sep-16 06:29N 48°23' W 004°29'0 0.0
2017-Sep-16 05:59N 48°23' W 004°29'0 0.0
2017-Sep-16 05:29N 48°23' W 004°29'0 0.0
2017-Sep-16 04:59N 48°23' W 004°29'0 0.0
2017-Sep-16 04:29N 48°23' W 004°29'0 0.0
2017-Sep-16 03:59N 48°23' W 004°29'0 0.0
2017-Sep-16 03:29N 48°23' W 004°29'0 0.0
2017-Sep-16 02:59N 48°23' W 004°29'0 0.0
2017-Sep-16 02:29N 48°23' W 004°29'0 0.0
2017-Sep-16 01:59N 48°23' W 004°29'0 0.0
2017-Sep-16 01:29N 48°23' W 004°29'0 0.0
2017-Sep-16 00:59N 48°23' W 004°29'0 0.0
2017-Sep-16 00:29N 48°23' W 004°29'0 0.0
2017-Sep-15 23:59N 48°23' W 004°29'0 0.0
2017-Sep-15 23:29N 48°23' W 004°29'0 0.0
2017-Sep-15 22:59N 48°23' W 004°29'0 0.0
2017-Sep-15 22:29N 48°23' W 004°29'0 0.0
2017-Sep-15 21:59N 48°23' W 004°29'0 0.0
2017-Sep-15 21:29N 48°23' W 004°29'0 0.0
2017-Sep-15 20:59N 48°23' W 004°29'0 0.0
2017-Sep-15 20:29N 48°23' W 004°29'0 0.0
2017-Sep-15 19:59N 48°23' W 004°29'0 0.0
2017-Sep-15 19:29N 48°23' W 004°29'0 0.0
2017-Sep-15 18:59N 48°23' W 004°29'0 0.0
2017-Sep-15 18:29N 48°23' W 004°29'0 0.0
2017-Sep-15 17:59N 48°23' W 004°29'0 0.0
2017-Sep-15 17:29N 48°23' W 004°29'0 0.0
2017-Sep-15 16:59N 48°23' W 004°29'0 0.0
2017-Sep-15 16:29N 48°23' W 004°29'0 0.0
2017-Sep-15 15:59N 48°23' W 004°29'0 0.0
2017-Sep-15 15:29N 48°23' W 004°29'0 0.0
2017-Sep-15 14:59N 48°23' W 004°29'0 0.0
2017-Sep-15 14:29N 48°23' W 004°29'0 0.0
2017-Sep-15 13:59N 48°23' W 004°29'0 0.0
2017-Sep-15 13:29N 48°23' W 004°29'0 0.0
2017-Sep-15 12:59N 48°23' W 004°29'0 0.0
2017-Sep-15 12:28N 48°23' W 004°29'0 0.0
2017-Sep-15 11:58N 48°23' W 004°29'0 0.0
2017-Sep-15 11:28N 48°23' W 004°29'0 0.0
2017-Sep-15 10:59N 48°23' W 004°29'0 0.0
2017-Sep-15 10:28N 48°23' W 004°29'0 0.0
2017-Sep-15 09:59N 48°23' W 004°29'0 0.0
2017-Sep-15 09:28N 48°23' W 004°29'0 0.0
2017-Sep-15 08:58N 48°23' W 004°29'0 0.0
2017-Sep-15 08:28N 48°23' W 004°29'0 0.0
2017-Sep-15 07:58N 48°23' W 004°29'0 0.0
2017-Sep-15 07:28N 48°23' W 004°29'0 0.0
2017-Sep-15 06:58N 48°23' W 004°29'0 0.0
2017-Sep-15 06:28N 48°23' W 004°29'0 0.0
2017-Sep-15 05:58N 48°23' W 004°29'0 0.0
2017-Sep-15 05:28N 48°23' W 004°29'0 0.0
2017-Sep-15 04:58N 48°23' W 004°29'0 0.0
2017-Sep-15 04:28N 48°23' W 004°29'0 0.0
2017-Sep-15 03:58N 48°23' W 004°29'0 0.0
2017-Sep-15 03:28N 48°23' W 004°29'0 0.0
2017-Sep-15 02:58N 48°23' W 004°29'0 0.0
2017-Sep-15 02:28N 48°23' W 004°29'0 0.0
2017-Sep-15 01:58N 48°23' W 004°29'0 0.0
2017-Sep-15 01:28N 48°23' W 004°29'0 0.0
2017-Sep-15 00:58N 48°23' W 004°29'0 0.0
2017-Sep-15 00:28N 48°23' W 004°29'0 0.0
2017-Sep-14 23:58N 48°23' W 004°29'0 0.0
2017-Sep-14 23:28N 48°23' W 004°29'0 0.0
2017-Sep-14 22:58N 48°23' W 004°29'0 0.0
2017-Sep-14 22:28N 48°23' W 004°29'0 0.0
2017-Sep-14 21:58N 48°23' W 004°29'0 0.0
2017-Sep-14 21:28N 48°23' W 004°29'0 0.0
2017-Sep-14 20:58N 48°23' W 004°29'0 0.0
2017-Sep-14 20:28N 48°23' W 004°29'0 0.0
2017-Sep-14 19:58N 48°23' W 004°29'0 0.0
2017-Sep-14 19:28N 48°23' W 004°29'0 0.0
2017-Sep-14 18:58N 48°23' W 004°29'0 0.0
2017-Sep-14 18:28N 48°23' W 004°29'0 0.0
2017-Sep-14 17:58N 48°23' W 004°29'0 0.0
2017-Sep-14 17:28N 48°23' W 004°29'0 0.0
2017-Sep-14 16:58N 48°23' W 004°29'0 0.0
2017-Sep-14 16:28N 48°23' W 004°29'0 0.0
2017-Sep-14 15:58N 48°23' W 004°29'0 0.0
2017-Sep-14 15:28N 48°23' W 004°29'0 0.0
2017-Sep-14 14:58N 48°23' W 004°29'0 0.0
2017-Sep-14 14:28N 48°23' W 004°29'0 0.0
2017-Sep-14 13:58N 48°23' W 004°29'0 0.0
2017-Sep-14 13:28N 48°23' W 004°29'0 0.0
2017-Sep-14 12:58N 48°23' W 004°29'0 0.0
2017-Sep-14 12:28N 48°23' W 004°29'0 0.0
2017-Sep-14 11:58N 48°23' W 004°29'0 0.0
2017-Sep-14 11:28N 48°23' W 004°29'0 0.0
2017-Sep-14 10:58N 48°23' W 004°29'0 0.0
2017-Sep-14 10:28N 48°23' W 004°29'0 0.0
2017-Sep-14 09:58N 48°23' W 004°29'0 0.0
2017-Sep-14 09:28N 48°23' W 004°29'0 0.0
2017-Sep-14 08:58N 48°23' W 004°29'0 0.0
2017-Sep-14 08:29N 48°23' W 004°29'3 6.2
2017-Sep-14 08:01N 48°21' W 004°33'510.4
2017-Sep-14 07:30N 48°19' W 004°40'612.7
2017-Sep-14 07:00N 48°21' W 004°49'816.2
2017-Sep-14 06:30N 48°27' W 004°57'4 8.6
2017-Sep-14 06:01N 48°28' W 005°03'0 0.0
2017-Sep-14 05:31N 48°28' W 005°03'0 0.0
2017-Sep-14 05:00N 48°28' W 005°03'0 0.0
2017-Sep-14 04:30N 48°28' W 005°03'0 0.0
2017-Sep-14 04:00N 48°28' W 005°03'0 0.0
2017-Sep-14 03:24N 48°28' W 005°03'0 0.0
2017-Sep-14 03:00N 48°28' W 005°03'0 0.0
2017-Sep-14 02:30N 48°28' W 005°03'0 0.0
2017-Sep-14 01:54N 48°28' W 005°03'0 0.0
2017-Sep-14 01:30N 48°28' W 005°03'0 0.0
2017-Sep-14 01:00N 48°28' W 005°03'0 0.0
2017-Sep-14 00:30N 48°28' W 005°03'0 0.0
2017-Sep-14 00:00N 48°28' W 005°03'0 0.0
2017-Sep-13 23:30N 48°28' W 005°03'0 0.0
2017-Sep-13 22:54N 48°28' W 005°03'0 0.0
2017-Sep-13 22:30N 48°28' W 005°03'0 0.0
2017-Sep-13 21:54N 48°28' W 005°03'0 0.0
2017-Sep-13 21:30N 48°28' W 005°03'0 0.0
2017-Sep-13 21:00N 48°28' W 005°03'0 0.0
2017-Sep-13 20:30N 48°28' W 005°03'0 0.0
2017-Sep-13 20:00N 48°28' W 005°03'0 0.1
2017-Sep-13 19:30N 48°28' W 005°03'0 0.0
2017-Sep-13 18:54N 48°28' W 005°03'0 0.0
2017-Sep-13 18:24N 48°28' W 005°03'0 0.0
2017-Sep-13 18:00N 48°28' W 005°03'0 0.0
2017-Sep-13 17:30N 48°28' W 005°03'1 2.0
2017-Sep-13 17:00N 48°28' W 005°01'917.7
2017-Sep-13 16:31N 48°24' W 004°50'815.7
2017-Sep-13 16:01N 48°18' W 004°42'5 9.0
2017-Sep-13 15:30N 48°17' W 004°35'0 0.0
2017-Sep-13 15:00N 48°17' W 004°35'0 0.0
2017-Sep-13 14:30N 48°17' W 004°35'0 0.1
2017-Sep-13 14:00N 48°17' W 004°35'0 0.1
2017-Sep-13 13:30N 48°17' W 004°35'0 0.1
2017-Sep-13 13:00N 48°17' W 004°35'0 0.1
2017-Sep-13 12:30N 48°17' W 004°35'0 0.0
2017-Sep-13 12:00N 48°17' W 004°35'0 0.0
2017-Sep-13 11:30N 48°17' W 004°35'0 0.0
2017-Sep-13 11:00N 48°17' W 004°35'0 0.0
2017-Sep-13 10:30N 48°17' W 004°35'0 0.0
2017-Sep-13 10:00N 48°17' W 004°35'0 0.0
2017-Sep-13 09:30N 48°17' W 004°35'0 0.0
2017-Sep-13 09:00N 48°17' W 004°35'0 0.0
2017-Sep-13 08:30N 48°17' W 004°35'0 0.0
2017-Sep-13 08:00N 48°17' W 004°35'0 0.0
2017-Sep-13 07:30N 48°17' W 004°35'0 0.0
2017-Sep-13 07:00N 48°17' W 004°35'0 0.0
2017-Sep-13 06:30N 48°17' W 004°35'0 0.2
2017-Sep-13 06:00N 48°17' W 004°35'0 0.1
2017-Sep-13 05:30N 48°17' W 004°35'0 0.0
2017-Sep-13 05:00N 48°17' W 004°35'0 0.0
2017-Sep-13 04:30N 48°17' W 004°35'0 0.1
2017-Sep-13 04:00N 48°17' W 004°35'0 0.1
2017-Sep-13 03:30N 48°17' W 004°35'0 0.1
2017-Sep-13 03:00N 48°17' W 004°35'0 0.0
2017-Sep-13 02:30N 48°17' W 004°35'0 0.1
2017-Sep-13 02:00N 48°17' W 004°35'0 0.0
2017-Sep-13 01:30N 48°17' W 004°35'0 0.1
2017-Sep-13 01:00N 48°17' W 004°35'0 0.1
2017-Sep-13 00:30N 48°17' W 004°35'0 0.1
2017-Sep-13 00:00N 48°17' W 004°35'0 0.1
2017-Sep-12 23:30N 48°17' W 004°35'0 0.1
2017-Sep-12 23:00N 48°17' W 004°35'0 0.1
2017-Sep-12 22:30N 48°17' W 004°35'0 0.1
2017-Sep-12 22:00N 48°17' W 004°35'0 0.1
2017-Sep-12 21:30N 48°17' W 004°35'0 0.0
2017-Sep-12 21:00N 48°17' W 004°35'0 0.0
2017-Sep-12 20:30N 48°17' W 004°35'0 0.1
2017-Sep-12 20:00N 48°17' W 004°35'0 0.0
2017-Sep-12 19:30N 48°17' W 004°35'0 0.1
2017-Sep-12 19:00N 48°17' W 004°35'0 0.1
2017-Sep-12 18:30N 48°17' W 004°35'0 0.1
2017-Sep-12 18:00N 48°17' W 004°35'0 0.1
2017-Sep-12 17:30N 48°17' W 004°35'0 0.1
2017-Sep-12 17:00N 48°17' W 004°35'0 0.1
2017-Sep-12 16:30N 48°17' W 004°35'0 0.0
2017-Sep-12 16:00N 48°17' W 004°35'0 0.0
2017-Sep-12 15:30N 48°17' W 004°35'0 0.0
2017-Sep-12 15:00N 48°17' W 004°35'0 0.1
2017-Sep-12 14:30N 48°17' W 004°35'0 0.1
2017-Sep-12 14:00N 48°17' W 004°35'0 0.0
2017-Sep-12 13:30N 48°17' W 004°35'0 0.0
2017-Sep-12 13:00N 48°17' W 004°35'2 3.2
2017-Sep-12 12:31N 48°19' W 004°36'611.9
2017-Sep-12 12:00N 48°23' W 004°29'0 0.0
2017-Sep-12 11:30N 48°23' W 004°29'0 0.0
2017-Sep-12 11:00N 48°23' W 004°29'0 0.0
2017-Sep-12 10:30N 48°23' W 004°29'0 0.0
2017-Sep-12 10:00N 48°23' W 004°29'0 0.0
2017-Sep-12 09:29N 48°23' W 004°29'0 0.0
2017-Sep-12 09:00N 48°23' W 004°29'0 0.0
2017-Sep-12 08:30N 48°23' W 004°29'0 0.0
2017-Sep-12 08:00N 48°23' W 004°29'0 0.0
2017-Sep-12 07:29N 48°23' W 004°29'0 0.0
2017-Sep-12 06:59N 48°23' W 004°29'0 0.0
2017-Sep-12 06:29N 48°23' W 004°29'0 0.0
2017-Sep-12 05:59N 48°23' W 004°29'0 0.0
2017-Sep-12 05:29N 48°23' W 004°29'0 0.0
2017-Sep-12 05:00N 48°23' W 004°29'0 0.0
2017-Sep-12 04:29N 48°23' W 004°29'0 0.0
2017-Sep-12 03:59N 48°23' W 004°29'0 0.0
2017-Sep-12 03:29N 48°23' W 004°29'0 0.0
2017-Sep-12 02:59N 48°23' W 004°29'0 0.0
2017-Sep-12 02:29N 48°23' W 004°29'0 0.0
2017-Sep-12 01:59N 48°23' W 004°29'0 0.0
2017-Sep-12 01:29N 48°23' W 004°29'0 0.0
2017-Sep-12 00:59N 48°23' W 004°29'0 0.0
2017-Sep-12 00:29N 48°23' W 004°29'0 0.0
2017-Sep-11 23:59N 48°23' W 004°29'0 0.0
2017-Sep-11 23:29N 48°23' W 004°29'0 0.0
2017-Sep-11 22:59N 48°23' W 004°29'0 0.0
2017-Sep-11 22:29N 48°23' W 004°29'0 0.0
2017-Sep-11 21:59N 48°23' W 004°29'0 0.0
2017-Sep-11 21:29N 48°23' W 004°29'0 0.0
2017-Sep-11 20:59N 48°23' W 004°29'0 0.0
2017-Sep-11 20:29N 48°23' W 004°29'0 0.0
2017-Sep-11 19:59N 48°23' W 004°29'0 0.0
2017-Sep-11 19:29N 48°23' W 004°29'0 0.0
2017-Sep-11 18:59N 48°23' W 004°29'0 0.0
2017-Sep-11 18:29N 48°23' W 004°29'0 0.0
2017-Sep-11 17:59N 48°23' W 004°29'0 0.0
2017-Sep-11 17:29N 48°23' W 004°29'0 0.2
2017-Sep-11 17:00N 48°23' W 004°29'714.0
2017-Sep-11 16:30N 48°19' W 004°38'714.8
2017-Sep-11 16:00N 48°21' W 004°49'816.1
2017-Sep-11 15:30N 48°27' W 004°57'4 7.6
2017-Sep-11 14:58N 48°28' W 005°03'0 0.0
2017-Sep-11 14:25N 48°28' W 005°03'0 0.0
2017-Sep-11 13:55N 48°28' W 005°03'0 0.0
2017-Sep-11 13:25N 48°28' W 005°03'0 0.0
2017-Sep-11 12:55N 48°28' W 005°03'0 0.0
2017-Sep-11 12:25N 48°28' W 005°03'0 0.0
2017-Sep-11 11:55N 48°28' W 005°03'0 0.0
2017-Sep-11 11:31N 48°28' W 005°03'0 0.0
2017-Sep-11 11:01N 48°28' W 005°03'0 0.0
2017-Sep-11 10:18N 48°28' W 005°03'0 0.0
2017-Sep-11 10:00N 48°28' W 005°03'0 0.0
2017-Sep-11 09:30N 48°28' W 005°03'0 0.0
2017-Sep-11 09:00N 48°28' W 005°03'0 0.0
2017-Sep-11 08:30N 48°28' W 005°03'0 0.0
2017-Sep-11 08:00N 48°28' W 005°03'0 0.0
2017-Sep-11 07:30N 48°28' W 005°03'0 0.1
2017-Sep-11 07:00N 48°28' W 005°03'  
Track history (hours):
 
Tides and Currents Weather Stations Pressure Air Temp Water Temp Dewpoint Dewpoint Depression Visibility Wind Speed Wind Dir Waves Ship Positions

Abeille Bourbon

Last reported at 2017-Sep-21 06:59 UTC. Time now 2017-Sep-21 07:08 UTC.
Position N 48°23' W 004°29'.

Length 80 m; draft 6.5 m.

Type: SAR. MMSI: 226263000.

Date/timePositionNaut miles runAvg speedWind from/ knotsBaromVisibWave heightAir tempDewpointWater temp
2017-Sep-21 06:59N 48°23' W 004°29'0 0.0
2017-Sep-21 06:29N 48°23' W 004°29'0 0.0
2017-Sep-21 05:59N 48°23' W 004°29'0 0.0
2017-Sep-21 05:29N 48°23' W 004°29'0 0.0
2017-Sep-21 04:59N 48°23' W 004°29'0 0.0
2017-Sep-21 04:29N 48°23' W 004°29'0 0.0
2017-Sep-21 03:59N 48°23' W 004°29'0 0.0
2017-Sep-21 03:29N 48°23' W 004°29'0 0.0
2017-Sep-21 02:59N 48°23' W 004°29'0 0.0
2017-Sep-21 02:29N 48°23' W 004°29'0 0.0
2017-Sep-21 01:59N 48°23' W 004°29'0 0.0
2017-Sep-21 01:29N 48°23' W 004°29'0 0.0
2017-Sep-21 00:59N 48°23' W 004°29'0 0.0
2017-Sep-21 00:29N 48°23' W 004°29'0 0.0
2017-Sep-20 23:59N 48°23' W 004°29'0 0.0
2017-Sep-20 23:29N 48°23' W 004°29'0 0.0
2017-Sep-20 22:59N 48°23' W 004°29'0 0.0
2017-Sep-20 22:29N 48°23' W 004°29'0 0.0
2017-Sep-20 21:59N 48°23' W 004°29'0 0.0
2017-Sep-20 21:29N 48°23' W 004°29'0 0.0
2017-Sep-20 20:59N 48°23' W 004°29'0 0.0
2017-Sep-20 20:29N 48°23' W 004°29'0 0.0
2017-Sep-20 19:59N 48°23' W 004°29'0 0.0
2017-Sep-20 19:29N 48°23' W 004°29'0 0.0
2017-Sep-20 18:59N 48°23' W 004°29'0 0.0
2017-Sep-20 18:29N 48°23' W 004°29'0 0.0
2017-Sep-20 17:59N 48°23' W 004°29'0 0.0
2017-Sep-20 17:29N 48°23' W 004°29'0 0.0
2017-Sep-20 16:59N 48°23' W 004°29'0 0.0
2017-Sep-20 16:29N 48°23' W 004°29'0 0.0
2017-Sep-20 15:59N 48°23' W 004°29'0 0.0
2017-Sep-20 15:29N 48°23' W 004°29'0 0.0
2017-Sep-20 14:59N 48°23' W 004°29'0 0.0
2017-Sep-20 13:59N 48°23' W 004°29'0 0.0
2017-Sep-20 13:29N 48°23' W 004°29'0 0.0
2017-Sep-20 12:59N 48°23' W 004°29'0 0.0
2017-Sep-20 12:29N 48°23' W 004°29'0 0.0
2017-Sep-20 11:59N 48°23' W 004°29'0 0.0
2017-Sep-20 11:29N 48°23' W 004°29'0 0.0
2017-Sep-20 10:59N 48°23' W 004°29'0 0.0
2017-Sep-20 10:29N 48°23' W 004°29'0 0.0
2017-Sep-20 09:59N 48°23' W 004°29'0 0.0
2017-Sep-20 09:29N 48°23' W 004°29'0 0.0
2017-Sep-20 08:59N 48°23' W 004°29'0 0.0
2017-Sep-20 08:29N 48°23' W 004°29'0 0.0
2017-Sep-20 07:59N 48°23' W 004°29'2 3.6
2017-Sep-20 07:31N 48°21' W 004°29'2 4.1
2017-Sep-20 07:01N 48°21' W 004°32'4 7.0
2017-Sep-20 06:31N 48°20' W 004°37'5 9.3
2017-Sep-20 06:01N 48°17' W 004°43'510.1
2017-Sep-20 05:31N 48°16' W 004°51'510.6
2017-Sep-20 05:00N 48°16' W 004°59'510.7
2017-Sep-20 04:31N 48°17' W 005°06'5 9.3
2017-Sep-20 03:56N 48°21' W 005°12'4 8.5
2017-Sep-20 03:30N 48°24' W 005°16'10 6.7
2017-Sep-20 02:00N 48°33' W 005°21'4 7.0
2017-Sep-20 01:28N 48°36' W 005°17'4 7.5
2017-Sep-20 01:00N 48°39' W 005°14'4 8.0
2017-Sep-20 00:30N 48°43' W 005°13'4 8.5
2017-Sep-20 00:01N 48°47' W 005°12'4 9.0
2017-Sep-19 23:30N 48°51' W 005°12'5 9.6
2017-Sep-19 22:59N 48°56' W 005°11'4 1.4
2017-Sep-19 19:55N 48°58' W 005°06'717.7
2017-Sep-19 19:30N 48°51' W 005°03'918.0
2017-Sep-19 19:00N 48°42' W 004°58'918.1
2017-Sep-19 18:30N 48°34' W 004°54'917.4
2017-Sep-19 18:00N 48°26' W 004°50'714.2
2017-Sep-19 17:31N 48°19' W 004°46'1019.0
2017-Sep-19 17:00N 48°21' W 004°32'2 4.9
2017-Sep-19 16:30N 48°23' W 004°29'0 0.0
2017-Sep-19 15:59N 48°23' W 004°29'0 0.0
2017-Sep-19 15:29N 48°23' W 004°29'0 0.0
2017-Sep-19 14:59N 48°23' W 004°29'0 0.0
2017-Sep-19 14:29N 48°23' W 004°29'0 0.0
2017-Sep-19 13:59N 48°23' W 004°29'0 0.0
2017-Sep-19 13:29N 48°23' W 004°29'0 0.0
2017-Sep-19 12:59N 48°23' W 004°29'0 0.0
2017-Sep-19 12:29N 48°23' W 004°29'0 0.0
2017-Sep-19 11:58N 48°23' W 004°29'0 0.0
2017-Sep-19 11:29N 48°23' W 004°29'0 0.0
2017-Sep-19 10:58N 48°23' W 004°29'0 0.0
2017-Sep-19 10:28N 48°23' W 004°29'0 0.0
2017-Sep-19 09:58N 48°23' W 004°29'0 0.0
2017-Sep-19 09:28N 48°23' W 004°29'0 0.0
2017-Sep-19 08:58N 48°23' W 004°29'0 0.0
2017-Sep-19 08:29N 48°23' W 004°29'0 0.0
2017-Sep-19 07:58N 48°23' W 004°29'0 0.0
2017-Sep-19 07:28N 48°23' W 004°29'0 0.0
2017-Sep-19 06:58N 48°23' W 004°29'0 0.0
2017-Sep-19 06:28N 48°23' W 004°29'0 0.0
2017-Sep-19 05:58N 48°23' W 004°29'0 0.0
2017-Sep-19 05:28N 48°23' W 004°29'0 0.0
2017-Sep-19 04:58N 48°23' W 004°29'0 0.0
2017-Sep-19 04:28N 48°23' W 004°29'0 0.0
2017-Sep-19 03:58N 48°23' W 004°29'0 0.0
2017-Sep-19 03:28N 48°23' W 004°29'0 0.0
2017-Sep-19 02:58N 48°23' W 004°29'0 0.0
2017-Sep-19 02:28N 48°23' W 004°29'0 0.0
2017-Sep-19 01:58N 48°23' W 004°29'0 0.0
2017-Sep-19 01:28N 48°23' W 004°29'0 0.0
2017-Sep-19 00:58N 48°23' W 004°29'0 0.0
2017-Sep-19 00:28N 48°23' W 004°29'0 0.0
2017-Sep-18 23:58N 48°23' W 004°29'0 0.0
2017-Sep-18 23:28N 48°23' W 004°29'0 0.0
2017-Sep-18 22:58N 48°23' W 004°29'0 0.0
2017-Sep-18 22:28N 48°23' W 004°29'0 0.0
2017-Sep-18 21:58N 48°23' W 004°29'0 0.0
2017-Sep-18 21:28N 48°23' W 004°29'0 0.0
2017-Sep-18 20:58N 48°23' W 004°29'0 0.0
2017-Sep-18 20:28N 48°23' W 004°29'0 0.0
2017-Sep-18 19:58N 48°23' W 004°29'0 0.0
2017-Sep-18 19:28N 48°23' W 004°29'0 0.0
2017-Sep-18 18:58N 48°23' W 004°29'0 0.0
2017-Sep-18 18:28N 48°23' W 004°29'0 0.0
2017-Sep-18 17:58N 48°23' W 004°29'0 0.0
2017-Sep-18 17:28N 48°23' W 004°29'0 0.0
2017-Sep-18 16:58N 48°23' W 004°29'0 0.0
2017-Sep-18 16:28N 48°23' W 004°29'0 0.0
2017-Sep-18 15:58N 48°23' W 004°29'0 0.0
2017-Sep-18 15:28N 48°23' W 004°29'0 0.0
2017-Sep-18 14:58N 48°23' W 004°29'0 0.0
2017-Sep-18 14:28N 48°23' W 004°29'0 0.0
2017-Sep-18 13:58N 48°23' W 004°29'0 0.0
2017-Sep-18 13:28N 48°23' W 004°29'0 0.0
2017-Sep-18 12:58N 48°23' W 004°29'0 0.0
2017-Sep-18 12:28N 48°23' W 004°29'0 0.0
2017-Sep-18 11:58N 48°23' W 004°29'0 0.0
2017-Sep-18 11:28N 48°23' W 004°29'0 0.0
2017-Sep-18 10:58N 48°23' W 004°29'0 0.0
2017-Sep-18 10:28N 48°23' W 004°29'0 0.0
2017-Sep-18 09:58N 48°23' W 004°29'0 0.0
2017-Sep-18 09:28N 48°23' W 004°29'0 0.0
2017-Sep-18 08:58N 48°23' W 004°29'0 0.0
2017-Sep-18 08:28N 48°23' W 004°29'0 0.0
2017-Sep-18 07:58N 48°23' W 004°29'0 0.0
2017-Sep-18 07:28N 48°23' W 004°29'0 0.0
2017-Sep-18 06:58N 48°23' W 004°29'0 0.0
2017-Sep-18 06:28N 48°23' W 004°29'0 0.0
2017-Sep-18 05:58N 48°23' W 004°29'0 0.0
2017-Sep-18 05:31N 48°23' W 004°29'0 0.0
2017-Sep-18 05:01N 48°23' W 004°29'0 0.0
2017-Sep-18 04:30N 48°23' W 004°29'0 0.0
2017-Sep-18 04:00N 48°23' W 004°29'0 0.0
2017-Sep-18 03:30N 48°23' W 004°29'0 0.0
2017-Sep-18 03:00N 48°23' W 004°29'0 0.0
2017-Sep-18 02:30N 48°23' W 004°29'0 0.0
2017-Sep-18 02:00N 48°23' W 004°29'0 0.0
2017-Sep-18 01:30N 48°23' W 004°29'0 0.0
2017-Sep-18 01:00N 48°23' W 004°29'0 0.0
2017-Sep-18 00:30N 48°23' W 004°29'0 0.0
2017-Sep-18 00:00N 48°23' W 004°29'0 0.0
2017-Sep-17 23:30N 48°23' W 004°29'0 0.0
2017-Sep-17 23:00N 48°23' W 004°29'0 0.0
2017-Sep-17 22:30N 48°23' W 004°29'0 0.0
2017-Sep-17 22:00N 48°23' W 004°29'0 0.0
2017-Sep-17 21:30N 48°23' W 004°29'0 0.0
2017-Sep-17 21:00N 48°23' W 004°29'0 0.0
2017-Sep-17 20:30N 48°23' W 004°29'0 0.0
2017-Sep-17 20:00N 48°23' W 004°29'0 0.0
2017-Sep-17 19:30N 48°23' W 004°29'0 0.0
2017-Sep-17 19:00N 48°23' W 004°29'0 0.0
2017-Sep-17 18:30N 48°23' W 004°29'0 0.0
2017-Sep-17 18:00N 48°23' W 004°29'0 0.0
2017-Sep-17 17:30N 48°23' W 004°29'0 0.0
2017-Sep-17 17:00N 48°23' W 004°29'0 0.0
2017-Sep-17 16:30N 48°23' W 004°29'0 0.0
2017-Sep-17 16:00N 48°23' W 004°29'0 0.0
2017-Sep-17 15:30N 48°23' W 004°29'0 0.0
2017-Sep-17 15:00N 48°23' W 004°29'0 0.0
2017-Sep-17 14:30N 48°23' W 004°29'0 0.0
2017-Sep-17 14:00N 48°23' W 004°29'0 0.0
2017-Sep-17 13:30N 48°23' W 004°29'0 0.0
2017-Sep-17 13:00N 48°23' W 004°29'0 0.0
2017-Sep-17 12:30N 48°23' W 004°29'0 0.0
2017-Sep-17 12:00N 48°23' W 004°29'0 0.0
2017-Sep-17 11:30N 48°23' W 004°29'0 0.0
2017-Sep-17 11:00N 48°23' W 004°29'0 0.0
2017-Sep-17 10:30N 48°23' W 004°29'0 0.0
2017-Sep-17 10:00N 48°23' W 004°29'0 0.0
2017-Sep-17 09:30N 48°23' W 004°29'0 0.0
2017-Sep-17 09:00N 48°23' W 004°29'0 0.0
2017-Sep-17 08:30N 48°23' W 004°29'0 0.0
2017-Sep-17 08:00N 48°23' W 004°29'0 0.0
2017-Sep-17 07:30N 48°23' W 004°29'0 0.0
2017-Sep-17 07:00N 48°23' W 004°29'0 0.0
2017-Sep-17 06:30N 48°23' W 004°29'0 0.0
2017-Sep-17 06:00N 48°23' W 004°29'0 0.0
2017-Sep-17 05:30N 48°23' W 004°29'0 0.0
2017-Sep-17 05:00N 48°23' W 004°29'0 0.0
2017-Sep-17 04:30N 48°23' W 004°29'0 0.0
2017-Sep-17 04:00N 48°23' W 004°29'0 0.0
2017-Sep-17 03:30N 48°23' W 004°29'0 0.0
2017-Sep-17 03:00N 48°23' W 004°29'0 0.0
2017-Sep-17 02:30N 48°23' W 004°29'0 0.0
2017-Sep-17 02:00N 48°23' W 004°29'0 0.0
2017-Sep-17 01:30N 48°23' W 004°29'0 0.0
2017-Sep-17 01:00N 48°23' W 004°29'0 0.0
2017-Sep-17 00:30N 48°23' W 004°29'0 0.0
2017-Sep-17 00:00N 48°23' W 004°29'0 0.0
2017-Sep-16 23:30N 48°23' W 004°29'0 0.0
2017-Sep-16 23:00N 48°23' W 004°29'0 0.0
2017-Sep-16 22:30N 48°23' W 004°29'0 0.0
2017-Sep-16 22:00N 48°23' W 004°29'0 0.0
2017-Sep-16 21:30N 48°23' W 004°29'0 0.0
2017-Sep-16 21:00N 48°23' W 004°29'0 0.0
2017-Sep-16 20:30N 48°23' W 004°29'0 0.0
2017-Sep-16 20:00N 48°23' W 004°29'0 0.0
2017-Sep-16 19:30N 48°23' W 004°29'0 0.0
2017-Sep-16 18:59N 48°23' W 004°29'0 0.0
2017-Sep-16 18:30N 48°23' W 004°29'0 0.0
2017-Sep-16 17:59N 48°23' W 004°29'0 0.0
2017-Sep-16 17:29N 48°23' W 004°29'0 0.0
2017-Sep-16 16:59N 48°23' W 004°29'0 0.0
2017-Sep-16 16:29N 48°23' W 004°29'0 0.0
2017-Sep-16 15:59N 48°23' W 004°29'0 0.0
2017-Sep-16 15:29N 48°23' W 004°29'0 0.0
2017-Sep-16 14:59N 48°23' W 004°29'0 0.0
2017-Sep-16 14:29N 48°23' W 004°29'0 0.0
2017-Sep-16 13:59N 48°23' W 004°29'0 0.0
2017-Sep-16 13:29N 48°23' W 004°29'0 0.0
2017-Sep-16 12:59N 48°23' W 004°29'0 0.0
2017-Sep-16 12:29N 48°23' W 004°29'0 0.0
2017-Sep-16 11:59N 48°23' W 004°29'0 0.0
2017-Sep-16 11:29N 48°23' W 004°29'0 0.0
2017-Sep-16 10:59N 48°23' W 004°29'0 0.0
2017-Sep-16 10:29N 48°23' W 004°29'0 0.0
2017-Sep-16 09:59N 48°23' W 004°29'0 0.0
2017-Sep-16 09:29N 48°23' W 004°29'0 0.0
2017-Sep-16 08:59N 48°23' W 004°29'0 0.0
2017-Sep-16 08:29N 48°23' W 004°29'0 0.0
2017-Sep-16 07:59N 48°23' W 004°29'0 0.0
2017-Sep-16 07:29N 48°23' W 004°29'0 0.0
2017-Sep-16 06:59N 48°23' W 004°29'0 0.0
2017-Sep-16 06:29N 48°23' W 004°29'0 0.0
2017-Sep-16 05:59N 48°23' W 004°29'0 0.0
2017-Sep-16 05:29N 48°23' W 004°29'0 0.0
2017-Sep-16 04:59N 48°23' W 004°29'0 0.0
2017-Sep-16 04:29N 48°23' W 004°29'0 0.0
2017-Sep-16 03:59N 48°23' W 004°29'0 0.0
2017-Sep-16 03:29N 48°23' W 004°29'0 0.0
2017-Sep-16 02:59N 48°23' W 004°29'0 0.0
2017-Sep-16 02:29N 48°23' W 004°29'0 0.0
2017-Sep-16 01:59N 48°23' W 004°29'0 0.0
2017-Sep-16 01:29N 48°23' W 004°29'0 0.0
2017-Sep-16 00:59N 48°23' W 004°29'0 0.0
2017-Sep-16 00:29N 48°23' W 004°29'0 0.0
2017-Sep-15 23:59N 48°23' W 004°29'0 0.0
2017-Sep-15 23:29N 48°23' W 004°29'0 0.0
2017-Sep-15 22:59N 48°23' W 004°29'0 0.0
2017-Sep-15 22:29N 48°23' W 004°29'0 0.0
2017-Sep-15 21:59N 48°23' W 004°29'0 0.0
2017-Sep-15 21:29N 48°23' W 004°29'0 0.0
2017-Sep-15 20:59N 48°23' W 004°29'0 0.0
2017-Sep-15 20:29N 48°23' W 004°29'0 0.0
2017-Sep-15 19:59N 48°23' W 004°29'0 0.0
2017-Sep-15 19:29N 48°23' W 004°29'0 0.0
2017-Sep-15 18:59N 48°23' W 004°29'0 0.0
2017-Sep-15 18:29N 48°23' W 004°29'0 0.0
2017-Sep-15 17:59N 48°23' W 004°29'0 0.0
2017-Sep-15 17:29N 48°23' W 004°29'0 0.0
2017-Sep-15 16:59N 48°23' W 004°29'0 0.0
2017-Sep-15 16:29N 48°23' W 004°29'0 0.0
2017-Sep-15 15:59N 48°23' W 004°29'0 0.0
2017-Sep-15 15:29N 48°23' W 004°29'0 0.0
2017-Sep-15 14:59N 48°23' W 004°29'0 0.0
2017-Sep-15 14:29N 48°23' W 004°29'0 0.0
2017-Sep-15 13:59N 48°23' W 004°29'0 0.0
2017-Sep-15 13:29N 48°23' W 004°29'0 0.0
2017-Sep-15 12:59N 48°23' W 004°29'0 0.0
2017-Sep-15 12:28N 48°23' W 004°29'0 0.0
2017-Sep-15 11:58N 48°23' W 004°29'0 0.0
2017-Sep-15 11:28N 48°23' W 004°29'0 0.0
2017-Sep-15 10:59N 48°23' W 004°29'0 0.0
2017-Sep-15 10:28N 48°23' W 004°29'0 0.0
2017-Sep-15 09:59N 48°23' W 004°29'0 0.0
2017-Sep-15 09:28N 48°23' W 004°29'0 0.0
2017-Sep-15 08:58N 48°23' W 004°29'0 0.0
2017-Sep-15 08:28N 48°23' W 004°29'0 0.0
2017-Sep-15 07:58N 48°23' W 004°29'0 0.0
2017-Sep-15 07:28N 48°23' W 004°29'0 0.0
2017-Sep-15 06:58N 48°23' W 004°29'0 0.0
2017-Sep-15 06:28N 48°23' W 004°29'0 0.0
2017-Sep-15 05:58N 48°23' W 004°29'0 0.0
2017-Sep-15 05:28N 48°23' W 004°29'0 0.0
2017-Sep-15 04:58N 48°23' W 004°29'0 0.0
2017-Sep-15 04:28N 48°23' W 004°29'0 0.0
2017-Sep-15 03:58N 48°23' W 004°29'0 0.0
2017-Sep-15 03:28N 48°23' W 004°29'0 0.0
2017-Sep-15 02:58N 48°23' W 004°29'0 0.0
2017-Sep-15 02:28N 48°23' W 004°29'0 0.0
2017-Sep-15 01:58N 48°23' W 004°29'0 0.0
2017-Sep-15 01:28N 48°23' W 004°29'0 0.0
2017-Sep-15 00:58N 48°23' W 004°29'0 0.0
2017-Sep-15 00:28N 48°23' W 004°29'0 0.0
2017-Sep-14 23:58N 48°23' W 004°29'0 0.0
2017-Sep-14 23:28N 48°23' W 004°29'0 0.0
2017-Sep-14 22:58N 48°23' W 004°29'0 0.0
2017-Sep-14 22:28N 48°23' W 004°29'0 0.0
2017-Sep-14 21:58N 48°23' W 004°29'0 0.0
2017-Sep-14 21:28N 48°23' W 004°29'0 0.0
2017-Sep-14 20:58N 48°23' W 004°29'0 0.0
2017-Sep-14 20:28N 48°23' W 004°29'0 0.0
2017-Sep-14 19:58N 48°23' W 004°29'0 0.0
2017-Sep-14 19:28N 48°23' W 004°29'0 0.0
2017-Sep-14 18:58N 48°23' W 004°29'0 0.0
2017-Sep-14 18:28N 48°23' W 004°29'0 0.0
2017-Sep-14 17:58N 48°23' W 004°29'0 0.0
2017-Sep-14 17:28N 48°23' W 004°29'0 0.0
2017-Sep-14 16:58N 48°23' W 004°29'0 0.0
2017-Sep-14 16:28N 48°23' W 004°29'0 0.0
2017-Sep-14 15:58N 48°23' W 004°29'0 0.0
2017-Sep-14 15:28N 48°23' W 004°29'0 0.0
2017-Sep-14 14:58N 48°23' W 004°29'0 0.0
2017-Sep-14 14:28N 48°23' W 004°29'0 0.0
2017-Sep-14 13:58N 48°23' W 004°29'0 0.0
2017-Sep-14 13:28N 48°23' W 004°29'0 0.0
2017-Sep-14 12:58N 48°23' W 004°29'0 0.0
2017-Sep-14 12:28N 48°23' W 004°29'0 0.0
2017-Sep-14 11:58N 48°23' W 004°29'0 0.0
2017-Sep-14 11:28N 48°23' W 004°29'0 0.0
2017-Sep-14 10:58N 48°23' W 004°29'0 0.0
2017-Sep-14 10:28N 48°23' W 004°29'0 0.0
2017-Sep-14 09:58N 48°23' W 004°29'0 0.0
2017-Sep-14 09:28N 48°23' W 004°29'0 0.0
2017-Sep-14 08:58N 48°23' W 004°29'0 0.0
2017-Sep-14 08:29N 48°23' W 004°29'3 6.2
2017-Sep-14 08:01N 48°21' W 004°33'510.4
2017-Sep-14 07:30N 48°19' W 004°40'612.7
2017-Sep-14 07:00N 48°21' W 004°49'816.2
2017-Sep-14 06:30N 48°27' W 004°57'4 8.6
2017-Sep-14 06:01N 48°28' W 005°03'0 0.0
2017-Sep-14 05:31N 48°28' W 005°03'0 0.0
2017-Sep-14 05:00N 48°28' W 005°03'0 0.0
2017-Sep-14 04:30N 48°28' W 005°03'0 0.0
2017-Sep-14 04:00N 48°28' W 005°03'0 0.0
2017-Sep-14 03:24N 48°28' W 005°03'0 0.0
2017-Sep-14 03:00N 48°28' W 005°03'0 0.0
2017-Sep-14 02:30N 48°28' W 005°03'0 0.0
2017-Sep-14 01:54N 48°28' W 005°03'0 0.0
2017-Sep-14 01:30N 48°28' W 005°03'0 0.0
2017-Sep-14 01:00N 48°28' W 005°03'0 0.0
2017-Sep-14 00:30N 48°28' W 005°03'0 0.0
2017-Sep-14 00:00N 48°28' W 005°03'0 0.0
2017-Sep-13 23:30N 48°28' W 005°03'0 0.0
2017-Sep-13 22:54N 48°28' W 005°03'0 0.0
2017-Sep-13 22:30N 48°28' W 005°03'0 0.0
2017-Sep-13 21:54N 48°28' W 005°03'0 0.0
2017-Sep-13 21:30N 48°28' W 005°03'0 0.0
2017-Sep-13 21:00N 48°28' W 005°03'0 0.0
2017-Sep-13 20:30N 48°28' W 005°03'0 0.0
2017-Sep-13 20:00N 48°28' W 005°03'0 0.1
2017-Sep-13 19:30N 48°28' W 005°03'0 0.0
2017-Sep-13 18:54N 48°28' W 005°03'0 0.0
2017-Sep-13 18:24N 48°28' W 005°03'0 0.0
2017-Sep-13 18:00N 48°28' W 005°03'0 0.0
2017-Sep-13 17:30N 48°28' W 005°03'1 2.0
2017-Sep-13 17:00N 48°28' W 005°01'917.7
2017-Sep-13 16:31N 48°24' W 004°50'815.7
2017-Sep-13 16:01N 48°18' W 004°42'5 9.0
2017-Sep-13 15:30N 48°17' W 004°35'0 0.0
2017-Sep-13 15:00N 48°17' W 004°35'0 0.0
2017-Sep-13 14:30N 48°17' W 004°35'0 0.1
2017-Sep-13 14:00N 48°17' W 004°35'0 0.1
2017-Sep-13 13:30N 48°17' W 004°35'0 0.1
2017-Sep-13 13:00N 48°17' W 004°35'0 0.1
2017-Sep-13 12:30N 48°17' W 004°35'0 0.0
2017-Sep-13 12:00N 48°17' W 004°35'0 0.0
2017-Sep-13 11:30N 48°17' W 004°35'0 0.0
2017-Sep-13 11:00N 48°17' W 004°35'0 0.0
2017-Sep-13 10:30N 48°17' W 004°35'0 0.0
2017-Sep-13 10:00N 48°17' W 004°35'0 0.0
2017-Sep-13 09:30N 48°17' W 004°35'0 0.0
2017-Sep-13 09:00N 48°17' W 004°35'0 0.0
2017-Sep-13 08:30N 48°17' W 004°35'0 0.0
2017-Sep-13 08:00N 48°17' W 004°35'0 0.0
2017-Sep-13 07:30N 48°17' W 004°35'0 0.0
2017-Sep-13 07:00N 48°17' W 004°35'0 0.0
2017-Sep-13 06:30N 48°17' W 004°35'0 0.2
2017-Sep-13 06:00N 48°17' W 004°35'0 0.1
2017-Sep-13 05:30N 48°17' W 004°35'0 0.0
2017-Sep-13 05:00N 48°17' W 004°35'0 0.0
2017-Sep-13 04:30N 48°17' W 004°35'0 0.1
2017-Sep-13 04:00N 48°17' W 004°35'0 0.1
2017-Sep-13 03:30N 48°17' W 004°35'0 0.1
2017-Sep-13 03:00N 48°17' W 004°35'0 0.0
2017-Sep-13 02:30N 48°17' W 004°35'0 0.1
2017-Sep-13 02:00N 48°17' W 004°35'0 0.0
2017-Sep-13 01:30N 48°17' W 004°35'0 0.1
2017-Sep-13 01:00N 48°17' W 004°35'0 0.1
2017-Sep-13 00:30N 48°17' W 004°35'0 0.1
2017-Sep-13 00:00N 48°17' W 004°35'0 0.1
2017-Sep-12 23:30N 48°17' W 004°35'0 0.1
2017-Sep-12 23:00N 48°17' W 004°35'0 0.1
2017-Sep-12 22:30N 48°17' W 004°35'0 0.1
2017-Sep-12 22:00N 48°17' W 004°35'0 0.1
2017-Sep-12 21:30N 48°17' W 004°35'0 0.0
2017-Sep-12 21:00N 48°17' W 004°35'0 0.0
2017-Sep-12 20:30N 48°17' W 004°35'0 0.1
2017-Sep-12 20:00N 48°17' W 004°35'0 0.0
2017-Sep-12 19:30N 48°17' W 004°35'0 0.1
2017-Sep-12 19:00N 48°17' W 004°35'0 0.1
2017-Sep-12 18:30N 48°17' W 004°35'0 0.1
2017-Sep-12 18:00N 48°17' W 004°35'0 0.1
2017-Sep-12 17:30N 48°17' W 004°35'0 0.1
2017-Sep-12 17:00N 48°17' W 004°35'0 0.1
2017-Sep-12 16:30N 48°17' W 004°35'0 0.0
2017-Sep-12 16:00N 48°17' W 004°35'0 0.0
2017-Sep-12 15:30N 48°17' W 004°35'0 0.0
2017-Sep-12 15:00N 48°17' W 004°35'0 0.1
2017-Sep-12 14:30N 48°17' W 004°35'0 0.1
2017-Sep-12 14:00N 48°17' W 004°35'0 0.0
2017-Sep-12 13:30N 48°17' W 004°35'0 0.0
2017-Sep-12 13:00N 48°17' W 004°35'2 3.2
2017-Sep-12 12:31N 48°19' W 004°36'611.9
2017-Sep-12 12:00N 48°23' W 004°29'0 0.0
2017-Sep-12 11:30N 48°23' W 004°29'0 0.0
2017-Sep-12 11:00N 48°23' W 004°29'0 0.0
2017-Sep-12 10:30N 48°23' W 004°29'0 0.0
2017-Sep-12 10:00N 48°23' W 004°29'0 0.0
2017-Sep-12 09:29N 48°23' W 004°29'0 0.0
2017-Sep-12 09:00N 48°23' W 004°29'0 0.0
2017-Sep-12 08:30N 48°23' W 004°29'0 0.0
2017-Sep-12 08:00N 48°23' W 004°29'0 0.0
2017-Sep-12 07:29N 48°23' W 004°29'0 0.0
2017-Sep-12 06:59N 48°23' W 004°29'0 0.0
2017-Sep-12 06:29N 48°23' W 004°29'0 0.0
2017-Sep-12 05:59N 48°23' W 004°29'0 0.0
2017-Sep-12 05:29N 48°23' W 004°29'0 0.0
2017-Sep-12 05:00N 48°23' W 004°29'0 0.0
2017-Sep-12 04:29N 48°23' W 004°29'0 0.0
2017-Sep-12 03:59N 48°23' W 004°29'0 0.0
2017-Sep-12 03:29N 48°23' W 004°29'0 0.0
2017-Sep-12 02:59N 48°23' W 004°29'0 0.0
2017-Sep-12 02:29N 48°23' W 004°29'0 0.0
2017-Sep-12 01:59N 48°23' W 004°29'0 0.0
2017-Sep-12 01:29N 48°23' W 004°29'0 0.0
2017-Sep-12 00:59N 48°23' W 004°29'0 0.0
2017-Sep-12 00:29N 48°23' W 004°29'0 0.0
2017-Sep-11 23:59N 48°23' W 004°29'0 0.0
2017-Sep-11 23:29N 48°23' W 004°29'0 0.0
2017-Sep-11 22:59N 48°23' W 004°29'0 0.0
2017-Sep-11 22:29N 48°23' W 004°29'0 0.0
2017-Sep-11 21:59N 48°23' W 004°29'0 0.0
2017-Sep-11 21:29N 48°23' W 004°29'0 0.0
2017-Sep-11 20:59N 48°23' W 004°29'0 0.0
2017-Sep-11 20:29N 48°23' W 004°29'0 0.0
2017-Sep-11 19:59N 48°23' W 004°29'0 0.0
2017-Sep-11 19:29N 48°23' W 004°29'0 0.0
2017-Sep-11 18:59N 48°23' W 004°29'0 0.0
2017-Sep-11 18:29N 48°23' W 004°29'0 0.0
2017-Sep-11 17:59N 48°23' W 004°29'0 0.0
2017-Sep-11 17:29N 48°23' W 004°29'0 0.2
2017-Sep-11 17:00N 48°23' W 004°29'714.0
2017-Sep-11 16:30N 48°19' W 004°38'714.8
2017-Sep-11 16:00N 48°21' W 004°49'816.1
2017-Sep-11 15:30N 48°27' W 004°57'4 7.6
2017-Sep-11 14:58N 48°28' W 005°03'0 0.0
2017-Sep-11 14:25N 48°28' W 005°03'0 0.0
2017-Sep-11 13:55N 48°28' W 005°03'0 0.0
2017-Sep-11 13:25N 48°28' W 005°03'0 0.0
2017-Sep-11 12:55N 48°28' W 005°03'0 0.0
2017-Sep-11 12:25N 48°28' W 005°03'0 0.0
2017-Sep-11 11:55N 48°28' W 005°03'0 0.0
2017-Sep-11 11:31N 48°28' W 005°03'0 0.0
2017-Sep-11 11:01N 48°28' W 005°03'0 0.0
2017-Sep-11 10:18N 48°28' W 005°03'0 0.0
2017-Sep-11 10:00N 48°28' W 005°03'0 0.0
2017-Sep-11 09:30N 48°28' W 005°03'0 0.0
2017-Sep-11 09:00N 48°28' W 005°03'0 0.0
2017-Sep-11 08:30N 48°28' W 005°03'0 0.0
2017-Sep-11 08:00N 48°28' W 005°03'0 0.0
2017-Sep-11 07:30N 48°28' W 005°03'0 0.1
2017-Sep-11 07:00N 48°28' W 005°03'  

Dump ship's entire track history